Time;durP1;ratioP1;P1;durP2;ratioP2;P2;SDS_P1;SDS_P2;PMS_P1;PMS_P2;Temp;Humidity;BMP_temperature;BMP_pressure;BME280_temperature;BME280_humidity;BME280_pressure;Samples;Min_cycle;Max_cycle;Signal;HPM_P1;HPM_P2
2023/04/27 00:00:58;;;;;;;4.47;2.47;;;6.10;99.90;;;;;;4823947;29;20711;-59
2023/04/27 00:03:28;;;;;;;4.53;2.60;;;6.20;99.90;;;;;;4823997;29;20240;-58
2023/04/27 00:05:56;;;;;;;5.83;3.10;;;6.20;99.90;;;;;;4824359;29;20723;-59
2023/04/27 00:08:24;;;;;;;3.30;2.50;;;6.10;99.90;;;;;;4823963;29;20239;-56
2023/04/27 00:10:52;;;;;;;6.00;2.40;;;6.20;99.90;;;;;;4814306;29;20233;-58
2023/04/27 00:13:20;;;;;;;3.60;2.50;;;6.20;99.90;;;;;;4805716;29;20229;-59
2023/04/27 00:15:48;;;;;;;3.63;2.63;;;6.20;99.90;;;;;;4805514;29;20280;-58
2023/04/27 00:18:16;;;;;;;4.37;2.83;;;6.30;99.90;;;;;;4829917;29;20691;-58
2023/04/27 00:20:46;;;;;;;5.17;3.30;;;6.30;99.90;;;;;;4827573;29;20247;-58
2023/04/27 00:23:14;;;;;;;4.00;2.83;;;6.10;99.90;;;;;;4824137;29;20810;-58
2023/04/27 00:25:42;;;;;;;5.80;2.93;;;6.10;99.90;;;;;;4823709;29;20236;-58
2023/04/27 00:28:10;;;;;;;3.53;2.83;;;6.10;99.90;;;;;;4824059;29;20243;-58
2023/04/27 00:30:38;;;;;;;5.83;3.33;;;5.90;99.90;;;;;;4823328;29;20250;-58
2023/04/27 00:33:07;;;;;;;5.53;2.90;;;5.80;99.90;;;;;;4823796;29;20688;-59
2023/04/27 00:35:35;;;;;;;3.73;2.60;;;5.70;99.90;;;;;;4823714;29;20258;-59
2023/04/27 00:38:04;;;;;;;3.70;2.70;;;5.70;99.90;;;;;;4822484;29;20235;-60
2023/04/27 00:40:34;;;;;;;5.40;2.90;;;5.70;99.90;;;;;;4816734;29;20267;-58
2023/04/27 00:43:02;;;;;;;4.20;2.97;;;5.70;99.90;;;;;;4805453;29;20243;-58
2023/04/27 00:45:30;;;;;;;5.93;3.00;;;5.60;99.90;;;;;;4804001;29;20240;-58
2023/04/27 00:47:59;;;;;;;5.37;3.20;;;5.50;99.90;;;;;;4826876;29;20288;-58
2023/04/27 00:50:29;;;;;;;5.97;3.00;;;5.40;99.90;;;;;;4826998;29;20223;-59
2023/04/27 00:52:57;;;;;;;5.33;3.00;;;5.40;99.90;;;;;;4823442;29;20232;-58
2023/04/27 00:55:27;;;;;;;7.27;3.60;;;5.40;99.90;;;;;;4822951;29;20228;-58
2023/04/27 00:57:55;;;;;;;4.20;2.63;;;5.60;99.90;;;;;;4804552;29;20229;-58
2023/04/27 01:00:23;;;;;;;5.73;3.20;;;5.70;99.90;;;;;;4805253;29;20236;-57
2023/04/27 01:02:52;;;;;;;5.80;3.00;;;5.70;99.90;;;;;;4805312;29;20339;-56
2023/04/27 01:05:21;;;;;;;4.80;3.07;;;5.70;99.90;;;;;;4805354;29;20232;-56
2023/04/27 01:07:49;;;;;;;6.90;3.10;;;5.70;99.90;;;;;;4805405;29;20248;-57
2023/04/27 01:10:17;;;;;;;6.70;3.40;;;5.60;99.90;;;;;;4816384;29;20232;-56
2023/04/27 01:12:47;;;;;;;7.07;2.90;;;5.50;99.90;;;;;;4823319;29;20738;-56
2023/04/27 01:15:15;;;;;;;5.73;3.00;;;5.50;99.90;;;;;;4822120;29;20267;-57
2023/04/27 01:17:43;;;;;;;4.83;2.90;;;5.50;99.90;;;;;;4832531;29;20224;-56
2023/04/27 01:20:12;;;;;;;4.70;3.37;;;5.60;99.90;;;;;;4829008;29;20239;-56
2023/04/27 01:22:40;;;;;;;7.40;3.33;;;5.50;99.90;;;;;;4840425;29;20232;-57
2023/04/27 01:25:11;;;;;;;4.27;3.30;;;5.40;99.90;;;;;;4840565;29;20236;-56
2023/04/27 01:27:39;;;;;;;4.73;3.43;;;5.30;99.90;;;;;;4826273;29;20243;-56
2023/04/27 01:30:08;;;;;;;5.23;3.77;;;5.30;99.90;;;;;;4826385;29;20589;-56
2023/04/27 01:32:37;;;;;;;6.83;3.30;;;5.30;99.90;;;;;;4824631;29;20250;-57
2023/04/27 01:35:06;;;;;;;6.00;3.47;;;5.20;99.90;;;;;;4827346;29;20724;-56
2023/04/27 01:37:35;;;;;;;6.83;3.63;;;5.20;99.90;;;;;;4824939;29;20469;-56
2023/04/27 01:40:05;;;;;;;7.20;3.43;;;5.20;99.90;;;;;;4825992;29;20262;-56
2023/04/27 01:42:34;;;;;;;5.33;3.57;;;5.10;99.90;;;;;;4808070;29;20698;-57
2023/04/27 01:45:03;;;;;;;7.60;3.70;;;5.20;99.90;;;;;;4808086;29;20228;-56
2023/04/27 01:47:32;;;;;;;4.93;3.53;;;5.10;99.90;;;;;;4824372;29;20587;-56
2023/04/27 01:50:00;;;;;;;7.57;3.97;;;5.10;99.90;;;;;;4830023;29;20251;-56
2023/04/27 01:52:28;;;;;;;6.50;3.50;;;5.10;99.90;;;;;;4826059;29;20235;-56
2023/04/27 01:54:56;;;;;;;4.60;3.63;;;5.10;99.90;;;;;;4825972;29;20472;-56
2023/04/27 01:57:24;;;;;;;5.10;3.30;;;5.20;99.90;;;;;;4829236;29;20485;-56
2023/04/27 01:59:53;;;;;;;5.70;4.03;;;5.20;99.90;;;;;;4824628;29;20559;-56
2023/04/27 02:02:22;;;;;;;7.03;4.03;;;5.20;99.90;;;;;;4824292;29;20270;-56
2023/04/27 02:04:50;;;;;;;5.30;3.40;;;5.10;99.90;;;;;;4824580;29;20481;-56
2023/04/27 02:07:19;;;;;;;6.63;3.93;;;5.10;99.90;;;;;;4824669;29;20284;-57
2023/04/27 02:09:47;;;;;;;7.47;3.73;;;5.00;99.90;;;;;;4818765;29;20472;-57
2023/04/27 02:12:15;;;;;;;6.03;3.93;;;4.90;99.90;;;;;;4806526;29;20834;-56
2023/04/27 02:14:43;;;;;;;6.33;4.37;;;4.70;99.90;;;;;;4807571;29;20243;-57
2023/04/27 02:17:13;;;;;;;6.97;3.90;;;4.80;99.90;;;;;;4818873;29;20715;-56
2023/04/27 02:19:41;;;;;;;4.33;3.43;;;4.80;99.90;;;;;;4831855;29;20239;-56
2023/04/27 02:22:09;;;;;;;6.60;4.33;;;5.00;99.90;;;;;;4825400;29;20235;-56
2023/04/27 02:24:37;;;;;;;5.23;3.97;;;5.00;99.90;;;;;;4825405;29;20469;-57
2023/04/27 02:27:05;;;;;;;6.80;3.80;;;4.90;99.90;;;;;;4825557;29;20491;-56
2023/04/27 02:29:37;;;;;;;6.00;3.90;;;5.00;99.90;;;;;;4824408;29;20591;-57
2023/04/27 02:32:06;;;;;;;7.17;3.70;;;5.10;99.90;;;;;;4825055;29;20304;-56
2023/04/27 02:34:35;;;;;;;4.97;3.40;;;5.10;99.90;;;;;;4823892;29;20240;-56
2023/04/27 02:37:03;;;;;;;4.30;2.80;;;5.10;99.90;;;;;;4824175;29;20292;-56
2023/04/27 02:39:32;;;;;;;5.13;3.10;;;5.20;99.90;;;;;;4819200;29;20240;-56
2023/04/27 02:42:00;;;;;;;3.93;2.70;;;5.40;99.90;;;;;;4807093;29;20493;-57
2023/04/27 02:44:28;;;;;;;6.20;3.20;;;5.40;99.90;;;;;;4807026;29;20966;-56
2023/04/27 02:46:57;;;;;;;5.43;3.00;;;5.50;99.90;;;;;;4814946;29;20288;-57
2023/04/27 02:49:26;;;;;;;4.43;2.97;;;5.40;99.90;;;;;;4832057;29;20269;-54
2023/04/27 02:51:56;;;;;;;5.57;2.97;;;5.30;99.90;;;;;;4823797;29;20231;-56
2023/04/27 02:54:26;;;;;;;4.93;2.33;;;5.20;99.90;;;;;;4838925;29;20521;-56
2023/04/27 02:56:54;;;;;;;5.17;2.67;;;5.10;99.90;;;;;;4832145;29;20271;-56
2023/04/27 02:59:22;;;;;;;3.83;2.53;;;5.10;99.90;;;;;;4825128;29;20231;-57
2023/04/27 03:01:50;;;;;;;3.83;2.80;;;5.10;99.90;;;;;;4824463;29;20478;-56
2023/04/27 03:04:18;;;;;;;4.77;3.00;;;5.10;99.90;;;;;;4824656;29;20238;-57
2023/04/27 03:06:48;;;;;;;4.77;2.60;;;5.00;99.90;;;;;;4823716;29;20489;-57
2023/04/27 03:09:18;;;;;;;4.30;3.10;;;5.00;99.90;;;;;;4819983;29;20234;-57
2023/04/27 03:11:46;;;;;;;8.00;3.10;;;5.00;99.90;;;;;;4805229;29;20486;-57
2023/04/27 03:14:14;;;;;;;7.60;3.17;;;4.90;99.90;;;;;;4806646;29;20966;-56
2023/04/27 03:16:42;;;;;;;6.60;2.63;;;4.90;99.90;;;;;;4811500;29;20480;-56
2023/04/27 03:19:13;;;;;;;6.17;3.57;;;5.00;99.90;;;;;;4833397;29;20227;-56
2023/04/27 03:21:41;;;;;;;6.97;3.23;;;4.90;99.90;;;;;;4824192;29;20228;-56
2023/04/27 03:24:10;;;;;;;6.67;3.40;;;4.80;99.90;;;;;;4824553;29;20224;-56
2023/04/27 03:26:39;;;;;;;4.90;2.97;;;4.90;99.90;;;;;;4824477;29;20500;-57
2023/04/27 03:29:07;;;;;;;5.07;3.63;;;4.90;99.90;;;;;;4824545;29;20712;-56
2023/04/27 03:31:35;;;;;;;6.30;3.57;;;4.80;99.90;;;;;;4824029;29;20493;-56
2023/04/27 03:34:03;;;;;;;6.00;3.17;;;4.90;99.90;;;;;;4824363;29;20991;-56
2023/04/27 03:36:32;;;;;;;6.33;3.50;;;4.90;99.90;;;;;;4838217;29;20246;-57
2023/04/27 03:39:00;;;;;;;6.30;3.90;;;4.80;99.90;;;;;;4838893;29;20469;-56
2023/04/27 03:41:28;;;;;;;6.23;3.83;;;4.70;99.90;;;;;;4815566;29;20520;-57
2023/04/27 03:43:57;;;;;;;5.80;3.53;;;4.70;99.90;;;;;;4823122;29;20248;-56
2023/04/27 03:46:25;;;;;;;8.37;4.30;;;4.80;99.90;;;;;;4822930;29;21030;-56
2023/04/27 03:48:54;;;;;;;5.17;3.63;;;4.80;99.90;;;;;;4836108;29;20235;-56
2023/04/27 03:51:22;;;;;;;4.90;3.90;;;4.80;99.90;;;;;;4821910;29;20228;-56
2023/04/27 03:53:50;;;;;;;7.50;4.23;;;4.80;99.90;;;;;;4838026;29;20256;-57
2023/04/27 03:56:18;;;;;;;9.40;3.90;;;4.70;99.90;;;;;;4835808;29;20392;-56
2023/04/27 03:58:46;;;;;;;5.00;3.57;;;4.80;99.90;;;;;;4824026;29;20219;-57
2023/04/27 04:01:20;;;;;;;4.53;3.47;;;4.80;99.90;;;;;;4805069;29;20769;-56
2023/04/27 04:03:50;;;;;;;5.27;3.30;;;4.90;99.90;;;;;;4804494;29;20236;-56
2023/04/27 04:06:18;;;;;;;6.50;3.93;;;4.90;99.90;;;;;;4808534;29;20232;-56
2023/04/27 04:08:46;;;;;;;6.53;4.03;;;4.80;99.90;;;;;;4824086;29;21011;-56
2023/04/27 04:11:14;;;;;;;6.43;4.20;;;4.80;99.90;;;;;;4834190;29;20231;-56
2023/04/27 04:13:43;;;;;;;7.17;4.53;;;4.70;99.90;;;;;;4840587;29;20771;-56
2023/04/27 04:16:12;;;;;;;7.27;4.00;;;4.80;99.90;;;;;;4814546;29;20325;-56
2023/04/27 04:18:42;;;;;;;6.70;3.63;;;4.80;99.90;;;;;;4830384;29;21007;-56
2023/04/27 04:21:11;;;;;;;5.83;3.87;;;4.80;99.90;;;;;;4820209;29;20235;-56
2023/04/27 04:23:40;;;;;;;6.90;4.00;;;4.70;99.90;;;;;;4823703;29;20769;-56
2023/04/27 04:26:08;;;;;;;5.40;3.57;;;4.70;99.90;;;;;;4815052;29;20238;-56
2023/04/27 04:28:37;;;;;;;9.20;3.83;;;4.60;99.90;;;;;;4805280;29;20659;-57
2023/04/27 04:31:05;;;;;;;7.70;4.33;;;4.60;99.90;;;;;;4823408;29;20240;-57
2023/04/27 04:33:33;;;;;;;7.83;4.70;;;4.80;99.90;;;;;;4820111;29;20254;-56
2023/04/27 04:36:05;;;;;;;9.40;4.87;;;4.80;99.90;;;;;;4804151;29;20869;-56
2023/04/27 04:38:34;;;;;;;9.67;4.30;;;5.10;99.90;;;;;;4804180;29;20480;-56
2023/04/27 04:41:02;;;;;;;7.50;4.57;;;4.90;99.90;;;;;;4804142;29;20485;-56
2023/04/27 04:43:33;;;;;;;7.20;4.43;;;5.00;99.90;;;;;;4804593;29;20485;-56
2023/04/27 04:46:05;;;;;;;11.20;4.90;;;5.10;99.90;;;;;;4824713;29;20295;-56
2023/04/27 04:48:34;;;;;;;6.33;4.43;;;5.20;99.90;;;;;;4822396;29;20488;-56
2023/04/27 04:51:06;;;;;;;7.60;4.43;;;5.10;99.90;;;;;;4822263;29;20595;-57
2023/04/27 04:53:36;;;;;;;7.90;5.13;;;5.20;99.90;;;;;;4824945;29;20477;-56
2023/04/27 04:56:10;;;;;;;8.87;4.57;;;5.50;99.90;;;;;;4824140;29;20232;-56
2023/04/27 04:58:39;;;;;;;8.10;4.80;;;5.60;99.90;;;;;;4824602;29;20219;-57
2023/04/27 05:01:07;;;;;;;7.43;4.83;;;5.60;99.90;;;;;;4824682;29;20262;-56
2023/04/27 05:03:35;;;;;;;8.80;4.80;;;5.90;99.90;;;;;;4823821;29;20471;-56
2023/04/27 05:06:04;;;;;;;7.80;5.20;;;6.00;99.90;;;;;;4828882;29;20555;-56
2023/04/27 05:08:33;;;;;;;9.40;4.30;;;5.80;99.90;;;;;;4826775;29;20680;-56
2023/04/27 05:11:01;;;;;;;5.57;4.27;;;5.50;99.90;;;;;;4825139;29;20244;-55
2023/04/27 05:13:31;;;;;;;6.37;4.07;;;5.40;99.90;;;;;;4830481;29;20239;-56
2023/04/27 05:15:59;;;;;;;7.57;3.80;;;5.30;99.90;;;;;;4813426;29;20231;-56
2023/04/27 05:18:27;;;;;;;7.23;3.80;;;5.20;99.90;;;;;;4818695;29;20588;-56
2023/04/27 05:20:55;;;;;;;4.60;3.50;;;5.20;99.90;;;;;;4820125;29;20236;-56
2023/04/27 05:23:23;;;;;;;7.20;3.53;;;5.30;99.90;;;;;;4818687;29;20712;-56
2023/04/27 05:25:52;;;;;;;5.77;3.47;;;5.50;99.90;;;;;;4819527;29;20254;-55
2023/04/27 05:28:20;;;;;;;6.57;3.77;;;5.60;99.90;;;;;;4817176;29;20244;-55
2023/04/27 05:30:48;;;;;;;4.37;3.20;;;5.90;99.90;;;;;;4818176;29;20246;-56
2023/04/27 05:33:16;;;;;;;5.77;3.47;;;5.90;99.90;;;;;;4817059;29;20236;-56
2023/04/27 05:35:44;;;;;;;5.87;3.23;;;5.90;99.90;;;;;;4817451;29;20302;-53
2023/04/27 05:38:16;;;;;;;6.67;2.97;;;5.90;99.90;;;;;;4820108;29;20251;-58
2023/04/27 05:40:44;;;;;;;6.83;2.90;;;5.90;99.90;;;;;;4819057;29;20236;-58
2023/04/27 05:43:13;;;;;;;4.77;3.40;;;5.90;99.90;;;;;;4817854;29;21001;-57
2023/04/27 05:45:42;;;;;;;4.50;3.30;;;5.90;99.90;;;;;;4818746;29;20254;-58
2023/04/27 05:48:10;;;;;;;6.07;3.23;;;5.80;99.90;;;;;;4819050;29;21107;-56
2023/04/27 05:50:38;;;;;;;3.87;2.77;;;5.80;99.90;;;;;;4819150;29;20638;-59
2023/04/27 05:53:06;;;;;;;3.80;2.80;;;5.80;99.90;;;;;;4817514;29;20229;-58
2023/04/27 05:55:34;;;;;;;7.23;3.20;;;5.90;99.90;;;;;;4816770;29;20496;-58
2023/04/27 05:58:02;;;;;;;4.63;3.03;;;6.20;99.90;;;;;;4818488;29;20234;-59
2023/04/27 06:00:37;;;;;;;3.90;2.50;;;6.40;99.90;;;;;;4817776;29;20604;-59
2023/04/27 06:03:05;;;;;;;4.03;2.70;;;6.60;99.90;;;;;;4815914;29;20700;-59
2023/04/27 06:05:34;;;;;;;4.80;2.60;;;6.80;99.90;;;;;;4817598;29;20844;-57
2023/04/27 06:08:02;;;;;;;7.10;2.80;;;7.00;99.90;;;;;;4818364;29;20247;-58
2023/04/27 06:10:31;;;;;;;6.10;2.80;;;7.20;99.90;;;;;;4817806;29;20779;-57
2023/04/27 06:12:59;;;;;;;4.10;3.10;;;7.40;99.90;;;;;;4817737;29;20285;-59
2023/04/27 06:15:27;;;;;;;5.47;3.00;;;7.60;99.90;;;;;;4818027;29;20236;-58
2023/04/27 06:17:56;;;;;;;5.97;3.33;;;7.80;99.90;;;;;;4817439;29;20247;-56
2023/04/27 06:20:24;;;;;;;4.80;2.87;;;8.00;99.90;;;;;;4817876;29;20258;-57
2023/04/27 06:22:52;;;;;;;4.47;2.73;;;8.10;99.90;;;;;;4817453;29;20719;-59
2023/04/27 06:25:21;;;;;;;3.27;2.50;;;8.30;99.90;;;;;;4818217;29;20728;-59
2023/04/27 06:27:51;;;;;;;3.73;3.03;;;8.60;99.90;;;;;;4817413;29;20275;-58
2023/04/27 06:30:20;;;;;;;5.57;3.13;;;8.70;99.90;;;;;;4817181;29;20632;-58
2023/04/27 06:32:48;;;;;;;6.67;3.03;;;8.80;99.90;;;;;;4817144;29;20284;-59
2023/04/27 06:35:17;;;;;;;5.90;3.57;;;9.00;99.90;;;;;;4817504;29;20240;-59
2023/04/27 06:37:46;;;;;;;5.03;3.23;;;9.20;99.90;;;;;;4815750;29;20347;-58
2023/04/27 06:40:14;;;;;;;5.13;3.30;;;9.30;99.90;;;;;;4816885;29;20235;-58
2023/04/27 06:42:42;;;;;;;6.57;3.67;;;9.50;99.90;;;;;;4816465;29;20258;-58
2023/04/27 06:45:11;;;;;;;7.20;3.80;;;9.60;99.90;;;;;;4817793;29;20238;-58
2023/04/27 06:47:43;;;;;;;6.87;3.40;;;9.70;99.90;;;;;;4819252;29;20236;-58
2023/04/27 06:50:11;;;;;;;5.70;3.43;;;9.90;99.90;;;;;;4818552;29;20236;-57
2023/04/27 06:52:40;;;;;;;6.10;3.30;;;9.90;99.90;;;;;;4816641;29;20230;-58
2023/04/27 06:55:09;;;;;;;8.97;3.13;;;10.10;99.90;;;;;;4816975;29;20240;-58
2023/04/27 06:57:37;;;;;;;4.53;3.03;;;10.20;99.90;;;;;;4817112;29;20935;-57
2023/04/27 07:00:06;;;;;;;6.87;2.93;;;10.40;99.90;;;;;;4817202;29;20237;-57
2023/04/27 07:02:34;;;;;;;4.30;2.73;;;10.50;99.90;;;;;;4815511;29;20237;-58
2023/04/27 07:05:02;;;;;;;3.73;2.70;;;10.70;99.90;;;;;;4817271;29;20265;-58
2023/04/27 07:07:31;;;;;;;6.03;3.13;;;11.00;99.90;;;;;;4819296;29;20283;-58
2023/04/27 07:10:00;;;;;;;3.30;2.53;;;11.20;99.90;;;;;;4818439;29;20242;-59
2023/04/27 07:12:28;;;;;;;5.27;3.07;;;11.30;99.90;;;;;;4817883;29;20240;-59
2023/04/27 07:14:56;;;;;;;5.03;2.90;;;11.50;99.90;;;;;;4818199;29;20739;-58
2023/04/27 07:17:24;;;;;;;4.97;2.53;;;11.60;99.90;;;;;;4818205;29;20241;-57
2023/04/27 07:19:53;;;;;;;4.07;2.60;;;11.70;99.90;;;;;;4818098;29;20619;-59
2023/04/27 07:22:21;;;;;;;5.90;3.03;;;11.90;99.90;;;;;;4817363;29;20238;-58
2023/04/27 07:24:49;;;;;;;5.03;2.43;;;12.00;99.90;;;;;;4818285;29;20718;-57
2023/04/27 07:27:19;;;;;;;3.90;2.60;;;12.10;99.90;;;;;;4819162;29;20683;-59
2023/04/27 07:29:47;;;;;;;7.07;2.30;;;12.20;99.90;;;;;;4818389;29;20243;-58
2023/04/27 07:32:15;;;;;;;4.87;2.57;;;12.40;99.90;;;;;;4817528;29;20731;-58
2023/04/27 07:34:43;;;;;;;3.03;2.03;;;12.50;99.90;;;;;;4817056;29;20264;-58
2023/04/27 07:37:20;;;;;;;3.80;2.27;;;12.70;99.90;;;;;;4818314;29;20246;-58
2023/04/27 07:39:50;;;;;;;3.37;1.90;;;12.80;99.90;;;;;;4818483;29;20239;-58
2023/04/27 07:42:22;;;;;;;6.40;2.20;;;12.60;99.90;;;;;;4816866;29;20235;-59
2023/04/27 07:44:50;;;;;;;3.47;2.00;;;12.60;99.90;;;;;;4818747;29;20715;-58
2023/04/27 07:47:19;;;;;;;2.83;1.83;;;12.90;99.90;;;;;;4817553;29;20745;-59
2023/04/27 07:49:47;;;;;;;3.97;1.80;;;12.80;99.90;;;;;;4818233;29;20246;-58
2023/04/27 07:52:15;;;;;;;4.77;2.07;;;13.10;99.90;;;;;;4816846;29;20583;-59
2023/04/27 07:54:43;;;;;;;4.30;2.37;;;13.40;99.90;;;;;;4818330;29;20228;-56
2023/04/27 07:57:11;;;;;;;4.17;1.90;;;12.70;99.90;;;;;;4817025;29;20245;-58
2023/04/27 07:59:41;;;;;;;4.73;1.87;;;12.70;99.90;;;;;;4817995;29;20608;-58
2023/04/27 08:02:09;;;;;;;3.93;1.90;;;12.70;99.90;;;;;;4816546;29;20241;-58
2023/04/27 08:04:46;;;;;;;5.20;1.90;;;12.10;99.90;;;;;;4817730;29;20603;-59
2023/04/27 08:07:15;;;;;;;2.27;1.87;;;11.90;99.90;;;;;;4816791;29;20235;-58
2023/04/27 08:09:44;;;;;;;5.10;2.00;;;12.20;99.90;;;;;;4817988;29;21255;-58
2023/04/27 08:12:12;;;;;;;2.87;2.10;;;12.60;99.90;;;;;;4816716;29;20361;-58
2023/04/27 08:14:42;;;;;;;6.60;2.33;;;13.40;99.90;;;;;;4818983;29;20251;-55
2023/04/27 08:17:10;;;;;;;3.60;2.10;;;14.00;99.90;;;;;;4816424;29;21018;-59
2023/04/27 08:19:38;;;;;;;5.37;2.13;;;13.40;99.90;;;;;;4817926;29;20239;-56
2023/04/27 08:22:07;;;;;;;3.30;1.93;;;13.00;99.90;;;;;;4816682;29;20239;-58
2023/04/27 08:24:36;;;;;;;5.80;2.60;;;12.60;99.90;;;;;;4817545;29;20278;-58
2023/04/27 08:27:05;;;;;;;5.17;2.33;;;12.40;99.90;;;;;;4816554;29;20752;-58
2023/04/27 08:29:33;;;;;;;4.50;2.17;;;12.20;99.90;;;;;;4818096;29;20243;-58
2023/04/27 08:32:04;;;;;;;4.63;2.40;;;12.20;99.90;;;;;;4815978;29;20243;-58
2023/04/27 08:34:32;;;;;;;8.93;2.60;;;12.10;99.90;;;;;;4817482;29;20901;-58
2023/04/27 08:37:02;;;;;;;5.13;2.50;;;11.90;99.90;;;;;;4817069;29;20263;-57
2023/04/27 08:39:30;;;;;;;4.60;2.30;;;11.70;99.90;;;;;;4817594;29;20243;-58
2023/04/27 08:41:58;;;;;;;4.37;2.50;;;11.60;99.90;;;;;;4816484;29;20248;-58
2023/04/27 08:44:26;;;;;;;6.37;2.13;;;11.60;99.90;;;;;;4817591;29;20591;-59
2023/04/27 08:46:54;;;;;;;4.13;2.43;;;11.90;99.90;;;;;;4817061;29;20246;-58
2023/04/27 08:49:23;;;;;;;3.83;2.07;;;12.60;99.90;;;;;;4817730;29;20246;-58
2023/04/27 08:51:51;;;;;;;5.17;2.60;;;13.60;99.90;;;;;;4815854;29;20341;-58
2023/04/27 08:54:20;;;;;;;5.77;2.50;;;13.90;99.90;;;;;;4817177;29;20716;-58
2023/04/27 08:56:48;;;;;;;4.33;2.20;;;14.00;99.90;;;;;;4816155;29;20743;-58
2023/04/27 08:59:16;;;;;;;4.93;2.50;;;14.20;99.90;;;;;;4818218;29;20236;-57
2023/04/27 09:01:47;;;;;;;3.93;2.30;;;14.00;99.90;;;;;;4815595;29;20251;-58
2023/04/27 09:04:16;;;;;;;4.47;2.33;;;13.10;99.90;;;;;;4817669;29;20338;-57
2023/04/27 09:06:47;;;;;;;3.27;2.20;;;12.70;99.90;;;;;;4816448;29;20731;-58
2023/04/27 09:09:23;;;;;;;3.17;2.30;;;13.20;99.90;;;;;;4817619;29;20710;-55
2023/04/27 09:11:51;;;;;;;3.50;2.37;;;13.90;99.90;;;;;;4816333;29;20250;-58
2023/04/27 09:14:21;;;;;;;4.37;2.37;;;14.10;99.90;;;;;;4816729;29;20230;-58
2023/04/27 09:16:56;;;;;;;4.30;2.13;;;13.90;99.90;;;;;;4816105;29;20239;-58
2023/04/27 09:19:25;;;;;;;5.20;2.70;;;13.60;99.90;;;;;;4817377;29;20238;-58
2023/04/27 09:22:05;;;;;;;4.57;2.70;;;12.90;99.90;;;;;;4816312;29;20243;-57
2023/04/27 09:24:33;;;;;;;5.03;2.83;;;12.50;99.90;;;;;;4817075;29;20244;-58
2023/04/27 09:27:02;;;;;;;4.43;2.53;;;12.30;99.90;;;;;;4816967;29;20240;-57
2023/04/27 09:29:33;;;;;;;6.87;2.90;;;11.90;99.90;;;;;;4817622;29;20243;-56
2023/04/27 09:32:02;;;;;;;7.43;3.00;;;11.50;99.90;;;;;;4815678;29;20330;-57
2023/04/27 09:34:40;;;;;;;8.50;2.97;;;11.30;99.90;;;;;;4817200;29;20587;-57
2023/04/27 09:37:10;;;;;;;5.07;3.10;;;11.00;99.90;;;;;;4817507;29;20727;-57
2023/04/27 09:39:38;;;;;;;4.50;2.63;;;10.80;99.90;;;;;;4820523;29;20305;-55
2023/04/27 09:42:07;;;;;;;6.77;2.93;;;10.80;99.90;;;;;;4818993;29;20250;-57
2023/04/27 09:44:35;;;;;;;4.90;2.80;;;10.90;99.90;;;;;;4820022;29;20238;-58
2023/04/27 09:47:05;;;;;;;4.37;3.17;;;11.10;99.90;;;;;;4820045;29;20266;-57
2023/04/27 09:49:34;;;;;;;4.43;3.00;;;11.30;99.90;;;;;;4820220;29;20250;-57
2023/04/27 09:52:03;;;;;;;6.47;2.77;;;11.50;99.90;;;;;;4819235;29;21000;-57
2023/04/27 09:54:34;;;;;;;4.50;2.90;;;11.60;99.90;;;;;;4820250;29;20600;-56
2023/04/27 09:57:12;;;;;;;4.73;3.10;;;11.80;99.90;;;;;;4819492;29;20500;-58
2023/04/27 09:59:58;;;;;;;5.60;3.17;;;11.80;99.90;;;;;;4818696;29;20246;-58
2023/04/27 10:02:28;;;;;;;4.73;3.30;;;11.90;99.90;;;;;;4817613;29;20266;-58
2023/04/27 10:05:13;;;;;;;6.13;3.07;;;12.10;99.90;;;;;;4819653;29;20300;-58
2023/04/27 10:07:42;;;;;;;3.77;2.90;;;12.80;99.90;;;;;;4818205;29;20613;-58
2023/04/27 10:10:19;;;;;;;4.17;2.70;;;13.60;99.90;;;;;;4819435;29;20244;-57
2023/04/27 10:12:57;;;;;;;4.77;2.47;;;13.70;99.90;;;;;;4818968;29;20568;-58
2023/04/27 10:15:29;;;;;;;4.70;3.00;;;13.60;99.90;;;;;;4818813;29;20234;-56
2023/04/27 10:18:04;;;;;;;4.63;3.03;;;13.50;99.90;;;;;;4817835;29;20250;-57
2023/04/27 10:20:34;;;;;;;4.47;2.83;;;13.00;99.90;;;;;;4817509;29;20245;-56
2023/04/27 10:23:03;;;;;;;3.43;2.60;;;12.30;99.90;;;;;;4816727;29;20246;-56
2023/04/27 10:25:39;;;;;;;4.87;2.87;;;12.00;99.90;;;;;;4817903;29;20240;-57
2023/04/27 10:28:07;;;;;;;2.57;2.17;;;11.80;99.90;;;;;;4819339;29;20242;-58
2023/04/27 10:30:37;;;;;;;3.63;2.40;;;12.20;99.90;;;;;;4819052;29;20252;-57
2023/04/27 10:33:07;;;;;;;5.97;2.33;;;12.80;99.90;;;;;;4818883;29;20270;-57
2023/04/27 10:35:37;;;;;;;3.23;1.90;;;13.30;99.90;;;;;;4820166;29;20269;-57
2023/04/27 10:38:07;;;;;;;4.60;2.50;;;14.00;99.90;;;;;;4820335;29;20247;-56
2023/04/27 10:40:37;;;;;;;2.50;2.17;;;13.90;99.90;;;;;;4819081;29;20241;-55
2023/04/27 10:43:09;;;;;;;5.73;2.10;;;13.80;99.90;;;;;;4817664;29;20240;-56
2023/04/27 10:45:38;;;;;;;3.93;2.23;;;13.50;99.90;;;;;;4819136;29;21552;-57
2023/04/27 10:48:07;;;;;;;2.67;2.03;;;13.20;99.90;;;;;;4819122;29;20715;-56
2023/04/27 10:50:35;;;;;;;5.10;2.40;;;12.90;99.90;;;;;;4818630;29;20260;-56
2023/04/27 10:53:05;;;;;;;4.80;2.33;;;13.20;99.90;;;;;;4817703;29;20243;-56
2023/04/27 10:55:34;;;;;;;2.80;2.37;;;13.20;99.90;;;;;;4819132;29;20232;-56
2023/04/27 10:58:04;;;;;;;2.80;2.50;;;12.60;99.90;;;;;;4819777;29;20596;-55
2023/04/27 11:00:34;;;;;;;3.10;2.10;;;12.30;99.90;;;;;;4819934;29;20585;-57
2023/04/27 11:03:13;;;;;;;5.77;2.90;;;12.20;99.90;;;;;;4818762;29;20242;-55
2023/04/27 11:05:41;;;;;;;3.30;2.40;;;12.30;99.90;;;;;;4819529;29;20708;-56
2023/04/27 11:08:11;;;;;;;2.70;2.50;;;12.50;99.90;;;;;;4819117;29;20244;-56
2023/04/27 11:10:41;;;;;;;4.17;2.50;;;13.50;99.90;;;;;;4818585;29;20731;-57
2023/04/27 11:13:12;;;;;;;4.20;2.60;;;15.00;99.90;;;;;;4818671;29;20357;-57
2023/04/27 11:15:47;;;;;;;3.53;2.40;;;15.90;99.90;;;;;;4818840;29;20240;-56
2023/04/27 11:18:17;;;;;;;5.37;2.57;;;16.00;99.90;;;;;;4818782;29;20267;-57
2023/04/27 11:20:48;;;;;;;4.37;1.93;;;16.00;99.90;;;;;;4819324;29;20240;-57
2023/04/27 11:23:27;;;;;;;5.73;2.60;;;15.70;99.90;;;;;;4817802;29;20246;-57
2023/04/27 11:25:56;;;;;;;3.90;2.40;;;14.70;99.90;;;;;;4819444;29;20243;-57
2023/04/27 11:28:26;;;;;;;2.87;2.17;;;14.10;99.90;;;;;;4817171;29;20239;-56
2023/04/27 11:30:57;;;;;;;4.73;2.70;;;13.90;99.90;;;;;;4818404;29;20260;-56
2023/04/27 11:33:26;;;;;;;4.70;2.30;;;13.50;99.90;;;;;;4817331;29;20235;-57
2023/04/27 11:35:55;;;;;;;4.33;2.50;;;13.40;99.90;;;;;;4818844;29;20343;-57
2023/04/27 11:38:23;;;;;;;5.87;2.53;;;13.70;99.90;;;;;;4817460;29;20582;-56
2023/04/27 11:41:04;;;;;;;3.63;2.60;;;14.00;99.90;;;;;;4817467;29;20240;-56
2023/04/27 11:43:34;;;;;;;4.30;2.30;;;13.80;99.90;;;;;;4815056;29;20271;-55
2023/04/27 11:46:07;;;;;;;8.03;2.73;;;13.60;99.90;;;;;;4817503;29;20704;-56
2023/04/27 11:48:37;;;;;;;5.23;2.60;;;13.60;99.90;;;;;;4816507;29;20244;-56
2023/04/27 11:51:05;;;;;;;5.17;2.13;;;13.60;99.90;;;;;;4816796;29;20240;-56
2023/04/27 11:53:36;;;;;;;3.40;2.20;;;13.90;99.90;;;;;;4816508;29;20236;-57
2023/04/27 11:56:06;;;;;;;3.97;2.43;;;14.30;99.90;;;;;;4817468;29;20243;-57
2023/04/27 11:58:37;;;;;;;4.27;2.67;;;14.50;99.90;;;;;;4817427;29;20255;-56
2023/04/27 12:01:06;;;;;;;3.73;2.57;;;14.50;99.90;;;;;;4816637;29;20240;-56
2023/04/27 12:03:35;;;;;;;4.50;2.50;;;14.30;99.90;;;;;;4816200;29;20243;-56
2023/04/27 12:06:03;;;;;;;3.87;2.30;;;14.20;99.90;;;;;;4818211;29;20239;-56
2023/04/27 12:08:52;;;;;;;3.07;2.33;;;14.20;99.90;;;;;;4817953;29;20240;-57
2023/04/27 12:11:20;;;;;;;3.23;2.00;;;13.80;99.90;;;;;;4817016;29;20716;-56
2023/04/27 12:13:50;;;;;;;4.50;2.57;;;13.60;99.90;;;;;;4817826;29;20236;-56
2023/04/27 12:16:20;;;;;;;3.30;2.10;;;13.30;99.90;;;;;;4817446;29;20228;-55
2023/04/27 12:18:49;;;;;;;3.80;2.20;;;12.90;99.90;;;;;;4817652;29;20232;-55
2023/04/27 12:21:18;;;;;;;4.97;2.63;;;12.70;99.90;;;;;;4817492;29;20704;-56
2023/04/27 12:23:46;;;;;;;3.33;2.00;;;12.60;99.90;;;;;;4817113;29;20240;-56
2023/04/27 12:26:14;;;;;;;4.13;2.07;;;12.40;99.90;;;;;;4818194;29;20239;-57
2023/04/27 12:28:42;;;;;;;3.20;2.30;;;12.20;99.90;;;;;;4817735;29;20731;-56
2023/04/27 12:31:17;;;;;;;3.50;2.00;;;12.20;99.90;;;;;;4817151;29;20250;-57
2023/04/27 12:33:48;;;;;;;3.13;2.27;;;12.30;99.90;;;;;;4816194;29;20250;-55
2023/04/27 12:36:16;;;;;;;3.67;2.20;;;12.20;99.90;;;;;;4817350;29;20267;-55
2023/04/27 12:38:44;;;;;;;4.50;2.43;;;12.10;99.90;;;;;;4817664;29;21253;-56
2023/04/27 12:41:12;;;;;;;4.23;2.40;;;11.80;99.90;;;;;;4818065;29;20853;-56
2023/04/27 12:43:41;;;;;;;8.30;2.90;;;11.60;99.90;;;;;;4816413;29;20239;-55
2023/04/27 12:46:11;;;;;;;5.53;2.70;;;11.50;99.90;;;;;;4818103;29;20235;-57
2023/04/27 12:48:39;;;;;;;3.83;2.40;;;11.50;99.90;;;;;;4817392;29;20242;-57
2023/04/27 12:51:08;;;;;;;4.67;2.70;;;11.50;99.90;;;;;;4817751;29;20235;-57
2023/04/27 12:53:36;;;;;;;3.43;2.40;;;11.50;99.90;;;;;;4815862;29;20236;-56
2023/04/27 12:56:05;;;;;;;3.70;2.63;;;11.50;99.90;;;;;;4817126;29;20334;-56
2023/04/27 12:58:33;;;;;;;5.00;2.73;;;11.40;99.90;;;;;;4822696;29;20730;-54
2023/04/27 13:01:01;;;;;;;4.40;2.60;;;11.40;99.90;;;;;;4817361;29;20253;-56
2023/04/27 13:03:31;;;;;;;5.40;3.00;;;11.50;99.90;;;;;;4814868;29;20251;-57